CheckWX is a tool to help pilots better visualize weather data.  It is not intended as a substitute for an official pre-flight weather briefing.

04:54:02 UTC

KOXB METAR
Ocean City Municipal Airport
Ocean City, Maryland, USA
Current

15 mins ago

KOXB 260439Z AUTO 04009G20KT 10SM SCT023 OVC065 22/18 A3013 RMK AO2 T02220178
Observed
Aug-26 @ 04:39 UTC
Wind
  • 040° at 9 KTS
  • Gusting to 20 KTS
Visibility
10 SM
Flight Rules
VFR
Cloud Levels
  • Scattered at 2,300' AGL
  • Overcast at 6,500' AGL
Temperature
22°C / 72°F
Dewpoint
18°C / 64°F
Humidity
78%
Altimeter
30.13" Hg
Pressure
1020.32 hPa
Previous

38 mins ago

KOXB 260416Z AUTO 05014G21KT 10SM SCT025 BKN035 OVC070 22/17 A3013 RMK AO2 T02220172
Observed
Aug-26 @ 04:16 UTC
Wind
  • 050° at 14 KTS
  • Gusting to 21 KTS
Visibility
10 SM
Flight Rules
VFR
Cloud Levels
  • Scattered at 2,500' AGL
  • Broken at 3,500' AGL
  • Overcast at 7,000' AGL
Temperature
22°C / 72°F
Dewpoint
17°C / 63°F
Humidity
73%
Altimeter
30.13" Hg
Pressure
1020.32 hPa
Previous

1 hour ago

KOXB 260353Z AUTO 05012G23KT 10SM BKN025 OVC035 22/17 A3013 RMK AO2 SLP203 T02170172
Observed
Aug-26 @ 03:53 UTC
Wind
  • 050° at 12 KTS
  • Gusting to 23 KTS
Visibility
10 SM
Flight Rules
MVFR
Cloud Levels
  • Broken at 2,500' AGL
  • Overcast at 3,500' AGL
Temperature
22°C / 72°F
Dewpoint
17°C / 63°F
Humidity
73%
Altimeter
30.13" Hg
Pressure
1020.32 hPa